Time;durP1;ratioP1;P1;durP2;ratioP2;P2;SDS_P1;SDS_P2;PMS_P1;PMS_P2;Temp;Humidity;BMP_temperature;BMP_pressure;BME280_temperature;BME280_humidity;BME280_pressure;Samples;Min_cycle;Max_cycle;Signal;HPM_P1;HPM_P2
2021/06/11 00:00:17;;;;;;;3.60;2.55;;;15.30;73.70;;;;;;5072163;28;20464;-60
2021/06/11 00:02:44;;;;;;;7.53;3.72;;;15.50;73.10;;;;;;5053479;28;20029;-62
2021/06/11 00:05:12;;;;;;;4.53;3.00;;;15.70;71.90;;;;;;5071971;28;20112;-55
2021/06/11 00:07:39;;;;;;;3.47;2.75;;;15.80;71.50;;;;;;5072243;28;20475;-63
2021/06/11 00:10:11;;;;;;;3.10;2.33;;;15.80;71.00;;;;;;5072235;28;20112;-63
2021/06/11 00:12:39;;;;;;;3.92;2.83;;;16.00;70.30;;;;;;5072288;28;20028;-55
2021/06/11 00:15:08;;;;;;;4.00;3.20;;;16.10;69.50;;;;;;5072094;28;20020;-59
2021/06/11 00:17:36;;;;;;;5.35;2.83;;;16.30;69.10;;;;;;5072164;28;20040;-58
2021/06/11 00:20:06;;;;;;;3.50;2.40;;;16.40;68.20;;;;;;5071745;28;20059;-61
2021/06/11 00:22:33;;;;;;;2.45;2.13;;;16.60;68.20;;;;;;5071802;28;20056;-62
2021/06/11 00:25:01;;;;;;;4.15;2.92;;;16.70;68.10;;;;;;5071666;28;20099;-59
2021/06/11 00:27:28;;;;;;;4.43;3.00;;;16.80;67.60;;;;;;5071843;28;20036;-64
2021/06/11 00:29:55;;;;;;;3.60;2.42;;;17.00;67.20;;;;;;5071995;28;20031;-58
2021/06/11 00:32:23;;;;;;;2.97;2.65;;;17.00;66.50;;;;;;5071758;28;20428;-53
2021/06/11 00:34:50;;;;;;;6.15;2.00;;;17.10;66.00;;;;;;5071520;28;20107;-59
2021/06/11 00:37:17;;;;;;;3.50;2.58;;;17.20;66.00;;;;;;5054971;28;20427;-63
2021/06/11 00:39:45;;;;;;;2.95;2.22;;;17.20;66.10;;;;;;5075788;28;20028;-63
2021/06/11 00:42:13;;;;;;;2.83;2.22;;;17.30;65.90;;;;;;5075757;28;20383;-60
2021/06/11 00:44:40;;;;;;;3.50;2.55;;;17.40;65.90;;;;;;5075636;28;20024;-59
2021/06/11 00:47:07;;;;;;;2.50;2.30;;;17.40;65.90;;;;;;5075629;28;20032;-55
2021/06/11 00:49:35;;;;;;;6.32;2.00;;;17.50;65.40;;;;;;5075909;28;20108;-63
2021/06/11 00:52:05;;;;;;;2.80;2.13;;;17.60;64.90;;;;;;5075603;28;20040;-65
2021/06/11 00:54:34;;;;;;;3.75;2.17;;;17.80;65.20;;;;;;5075215;28;20044;-64
2021/06/11 00:57:01;;;;;;;6.65;2.10;;;17.90;64.50;;;;;;5075367;28;20036;-61
2021/06/11 00:59:30;;;;;;;4.43;2.13;;;18.10;63.90;;;;;;5074967;28;20471;-64
2021/06/11 01:01:58;;;;;;;3.75;2.63;;;18.40;63.40;;;;;;5075473;28;20024;-53
2021/06/11 01:04:25;;;;;;;2.65;1.95;;;18.40;63.00;;;;;;5075008;28;20028;-57
2021/06/11 01:06:53;;;;;;;3.15;1.80;;;18.50;62.70;;;;;;5075648;28;20440;-61
2021/06/11 01:09:20;;;;;;;2.90;2.00;;;18.60;62.50;;;;;;5075056;28;20052;-56
2021/06/11 01:11:49;;;;;;;3.13;1.73;;;18.80;61.90;;;;;;5075246;28;20028;-59
2021/06/11 01:14:16;;;;;;;8.82;2.08;;;18.80;62.00;;;;;;5074877;28;20028;-58
2021/06/11 01:16:44;;;;;;;2.47;1.83;;;19.00;61.40;;;;;;5074753;28;20029;-61
2021/06/11 01:19:13;;;;;;;4.72;1.83;;;19.00;60.50;;;;;;5074956;28;20180;-63
2021/06/11 01:22:09;;;;;;;3.70;2.05;;;19.10;60.70;;;;;;5074870;28;20025;-60
2021/06/11 01:24:51;;;;;;;3.83;1.70;;;19.10;60.50;;;;;;5074883;28;20055;-59
2021/06/11 01:27:19;;;;;;;2.88;1.40;;;19.00;60.60;;;;;;5074883;28;20035;-61
2021/06/11 01:29:51;;;;;;;3.35;1.88;;;18.90;60.20;;;;;;5075135;28;20483;-62
2021/06/11 01:32:19;;;;;;;;;;;18.80;61.00;;;;;;5074957;28;20024;-62
2021/06/11 01:34:50;;;;;;;5.60;1.98;;;18.70;61.00;;;;;;5074467;28;19904;-65
2021/06/11 01:37:24;;;;;;;2.42;1.90;;;18.60;62.30;;;;;;5074827;28;20143;-64
2021/06/11 01:39:57;;;;;;;2.22;1.65;;;18.50;61.50;;;;;;5074619;28;20021;-61
2021/06/11 01:42:25;;;;;;;2.53;1.42;;;18.30;61.90;;;;;;5074366;28;20093;-60
2021/06/11 01:44:55;;;;;;;2.78;1.80;;;18.10;62.90;;;;;;5074527;28;20471;-56
2021/06/11 01:47:23;;;;;;;2.90;1.80;;;18.10;63.90;;;;;;5073898;28;20025;-60
2021/06/11 01:49:52;;;;;;;2.13;1.52;;;18.20;63.70;;;;;;5073279;28;20044;-64
2021/06/11 01:52:21;;;;;;;2.33;1.63;;;18.30;65.00;;;;;;5074356;28;20056;-62
2021/06/11 01:54:48;;;;;;;2.38;1.25;;;18.40;63.40;;;;;;5074325;28;20025;-65
2021/06/11 01:57:16;;;;;;;5.40;1.73;;;18.50;63.40;;;;;;5074233;28;20109;-67
2021/06/11 01:59:45;;;;;;;3.22;1.02;;;18.60;63.40;;;;;;5074182;28;20081;-65
2021/06/11 02:02:14;;;;;;;3.63;1.35;;;18.70;62.10;;;;;;5073740;28;20111;-64
2021/06/11 02:04:42;;;;;;;2.10;1.17;;;18.70;63.00;;;;;;5073614;28;20108;-59
2021/06/11 02:07:10;;;;;;;2.70;1.35;;;18.80;63.30;;;;;;5074059;28;20494;-58
2021/06/11 02:09:39;;;;;;;1.58;1.40;;;18.90;62.00;;;;;;5073978;28;20359;-57
2021/06/11 02:12:08;;;;;;;3.17;1.00;;;19.00;62.20;;;;;;5055909;28;20078;-61
2021/06/11 02:14:37;;;;;;;1.38;1.25;;;19.10;61.30;;;;;;5073213;28;20023;-57
2021/06/11 02:17:07;;;;;;;1.50;1.10;;;19.30;61.40;;;;;;5073570;28;20119;-50
2021/06/11 02:19:36;;;;;;;2.35;1.13;;;19.30;61.90;;;;;;5073384;28;20049;-57
2021/06/11 02:22:05;;;;;;;9.90;1.25;;;19.40;61.20;;;;;;5073604;28;20048;-62
2021/06/11 02:24:33;;;;;;;3.80;1.20;;;19.50;60.60;;;;;;5073161;28;20024;-52
2021/06/11 02:27:02;;;;;;;5.72;1.60;;;19.50;61.50;;;;;;5073578;28;20028;-62
2021/06/11 02:29:30;;;;;;;8.70;1.45;;;19.70;59.80;;;;;;5073379;28;20025;-66
2021/06/11 02:31:57;;;;;;;1.73;1.10;;;19.90;58.90;;;;;;5073484;28;20349;-59
2021/06/11 02:34:24;;;;;;;1.67;1.20;;;19.80;59.30;;;;;;5073244;28;20065;-55
2021/06/11 02:36:52;;;;;;;3.50;1.33;;;19.90;59.90;;;;;;5069832;28;20037;-62
2021/06/11 02:39:20;;;;;;;1.20;1.10;;;20.00;59.60;;;;;;5073426;28;20111;-61
2021/06/11 02:41:56;;;;;;;1.60;1.10;;;20.00;60.10;;;;;;5073418;28;20029;-59
2021/06/11 02:44:26;;;;;;;1.30;1.10;;;20.00;59.90;;;;;;5072888;28;20021;-54
2021/06/11 02:47:08;;;;;;;6.78;1.30;;;20.10;59.80;;;;;;5073379;28;20024;-63
2021/06/11 02:50:05;;;;;;;5.75;1.92;;;20.20;58.60;;;;;;5073016;28;20027;-58
2021/06/11 02:52:34;;;;;;;1.85;0.95;;;20.10;58.00;;;;;;5071986;28;20028;-59
2021/06/11 02:55:06;;;;;;;4.68;1.05;;;19.80;59.60;;;;;;5072972;28;20020;-60
2021/06/11 02:57:48;;;;;;;2.25;1.15;;;19.60;61.10;;;;;;5073346;28;20463;-59
2021/06/11 03:00:16;;;;;;;1.42;1.00;;;19.60;61.90;;;;;;5072969;28;20493;-63
2021/06/11 03:02:50;;;;;;;2.33;0.93;;;19.70;61.20;;;;;;5072716;28;20312;-58
2021/06/11 03:05:20;;;;;;;2.17;1.10;;;19.70;61.20;;;;;;5072401;28;20020;-58
2021/06/11 03:07:52;;;;;;;1.38;0.80;;;19.90;60.30;;;;;;5072912;28;20029;-62
2021/06/11 03:10:27;;;;;;;1.35;1.15;;;20.10;60.10;;;;;;5072669;28;20031;-59
2021/06/11 03:13:00;;;;;;;1.55;1.05;;;20.10;60.30;;;;;;5072873;28;20069;-62
2021/06/11 03:15:33;;;;;;;3.58;1.10;;;20.20;59.80;;;;;;5072645;28;20449;-65
2021/06/11 03:18:05;;;;;;;4.45;0.93;;;20.30;59.70;;;;;;5072977;28;20211;-65
2021/06/11 03:20:37;;;;;;;1.95;1.33;;;20.30;58.60;;;;;;5072092;28;20052;-64
2021/06/11 03:23:13;;;;;;;6.15;1.10;;;20.40;59.10;;;;;;5072671;28;20028;-54
2021/06/11 03:25:51;;;;;;;1.42;1.15;;;20.50;58.00;;;;;;5054350;28;20440;-65
2021/06/11 03:28:30;;;;;;;1.67;1.02;;;20.30;58.40;;;;;;5072807;28;20145;-65
2021/06/11 03:31:01;;;;;;;2.92;0.75;;;20.10;59.00;;;;;;5072609;28;20031;-61
2021/06/11 03:33:33;;;;;;;1.95;1.00;;;19.90;57.80;;;;;;5072319;28;20123;-59
2021/06/11 03:36:19;;;;;;;2.97;1.00;;;19.40;60.30;;;;;;5072258;28;20468;-55
2021/06/11 03:38:58;;;;;;;2.30;1.17;;;19.20;60.40;;;;;;5071860;28;20037;-53
2021/06/11 03:41:26;;;;;;;4.03;0.63;;;18.90;60.80;;;;;;5072345;28;20028;-63
2021/06/11 03:43:54;;;;;;;2.03;0.80;;;18.60;61.20;;;;;;5072314;28;20024;-56
2021/06/11 03:46:23;;;;;;;0.70;0.70;;;18.40;62.80;;;;;;5071802;28;20028;-56
2021/06/11 03:48:53;;;;;;;1.38;0.80;;;18.30;64.50;;;;;;5072159;28;20067;-57
2021/06/11 03:51:23;;;;;;;6.43;1.40;;;18.10;63.10;;;;;;5054653;28;20021;-60
2021/06/11 03:53:51;;;;;;;1.58;0.70;;;18.00;63.50;;;;;;5072019;28;20055;-63
2021/06/11 03:56:20;;;;;;;1.73;0.80;;;17.90;66.10;;;;;;5072509;28;20016;-52
2021/06/11 03:58:50;;;;;;;0.93;0.80;;;17.70;63.80;;;;;;5072232;28;20029;-62
2021/06/11 04:01:25;;;;;;;1.30;0.65;;;17.50;67.40;;;;;;5072447;28;20154;-60
2021/06/11 04:03:56;;;;;;;1.08;0.80;;;17.40;67.40;;;;;;5072105;28;20105;-56
2021/06/11 04:06:37;;;;;;;2.63;1.00;;;17.40;67.40;;;;;;5072063;28;20487;-56
2021/06/11 04:09:11;;;;;;;2.78;0.88;;;17.30;66.70;;;;;;5072102;28;20028;-56
2021/06/11 04:11:53;;;;;;;3.67;0.63;;;17.20;69.20;;;;;;5072017;28;20021;-56
2021/06/11 04:14:34;;;;;;;6.97;1.25;;;17.10;69.10;;;;;;5076323;28;20024;-61
2021/06/11 04:17:05;;;;;;;5.45;1.08;;;17.10;70.00;;;;;;5075800;28;20556;-61
2021/06/11 04:19:41;;;;;;;3.80;0.93;;;17.00;70.40;;;;;;5075849;28;20120;-64
2021/06/11 04:22:13;;;;;;;2.00;0.80;;;16.90;70.20;;;;;;5076115;28;20031;-56
2021/06/11 04:24:47;;;;;;;2.13;0.82;;;16.90;70.70;;;;;;5075702;28;20096;-66
2021/06/11 04:27:15;;;;;;;3.80;1.02;;;16.80;71.00;;;;;;5076355;28;20036;-60
2021/06/11 04:29:46;;;;;;;0.57;0.52;;;16.80;70.70;;;;;;5058532;28;20017;-59
2021/06/11 04:32:13;;;;;;;0.82;0.60;;;16.70;70.90;;;;;;5075242;28;20039;-59
2021/06/11 04:34:41;;;;;;;2.28;1.20;;;16.70;72.70;;;;;;5075234;28;20029;-64
2021/06/11 04:37:08;;;;;;;0.90;0.80;;;16.70;71.00;;;;;;5075581;28;20059;-62
2021/06/11 04:39:36;;;;;;;1.50;0.95;;;16.60;72.90;;;;;;5075393;28;20028;-61
2021/06/11 04:42:04;;;;;;;0.95;0.70;;;16.60;73.40;;;;;;5075432;28;20024;-64
2021/06/11 04:44:32;;;;;;;0.85;0.80;;;16.60;72.20;;;;;;5075300;28;20062;-65
2021/06/11 04:46:59;;;;;;;0.75;0.75;;;16.50;72.90;;;;;;5075224;28;20021;-61
2021/06/11 04:49:26;;;;;;;2.28;0.85;;;16.50;72.30;;;;;;5075192;28;20462;-58
2021/06/11 04:51:54;;;;;;;1.70;0.77;;;16.50;72.30;;;;;;5056831;28;20120;-65
2021/06/11 04:54:21;;;;;;;0.90;0.63;;;16.50;73.40;;;;;;5057132;28;20024;-60
2021/06/11 04:56:49;;;;;;;2.70;0.93;;;16.50;71.70;;;;;;5075042;28;20032;-62
2021/06/11 04:59:17;;;;;;;1.00;0.60;;;16.40;73.70;;;;;;5075564;28;20024;-64
2021/06/11 05:01:47;;;;;;;1.90;0.63;;;16.40;72.90;;;;;;5075447;28;20162;-62
2021/06/11 05:04:15;;;;;;;2.28;0.90;;;16.40;73.80;;;;;;5075197;28;20036;-63
2021/06/11 05:06:42;;;;;;;1.05;0.65;;;16.40;73.50;;;;;;5075245;28;20025;-63
2021/06/11 05:09:09;;;;;;;2.60;0.85;;;16.30;73.00;;;;;;5075475;28;20379;-63
2021/06/11 05:11:37;;;;;;;1.70;0.80;;;16.30;73.80;;;;;;5075462;28;20023;-58
2021/06/11 05:14:04;;;;;;;1.52;0.82;;;16.30;72.90;;;;;;5075345;28;20375;-66
2021/06/11 05:16:31;;;;;;;1.10;0.70;;;16.30;74.40;;;;;;5075212;28;20383;-62
2021/06/11 05:19:00;;;;;;;1.27;0.70;;;16.30;74.50;;;;;;5074845;28;20044;-63
2021/06/11 05:21:27;;;;;;;3.65;0.95;;;16.30;74.50;;;;;;5074888;28;20025;-56
2021/06/11 05:23:54;;;;;;;4.78;0.80;;;16.20;73.60;;;;;;5074811;28;20074;-65
2021/06/11 05:26:22;;;;;;;0.88;0.77;;;16.20;74.10;;;;;;5057081;28;20498;-63
2021/06/11 05:28:50;;;;;;;1.88;0.70;;;16.20;74.50;;;;;;5074835;28;20103;-65
2021/06/11 05:31:17;;;;;;;2.33;0.80;;;16.20;73.40;;;;;;5074456;28;20112;-67
2021/06/11 05:33:45;;;;;;;1.55;0.65;;;16.20;74.90;;;;;;5074571;28;20082;-61
2021/06/11 05:36:12;;;;;;;0.77;0.55;;;16.20;74.60;;;;;;5071838;28;20431;-62
2021/06/11 05:38:40;;;;;;;0.70;0.63;;;16.10;75.70;;;;;;5074094;28;20024;-59
2021/06/11 05:41:07;;;;;;;0.50;0.50;;;16.10;74.20;;;;;;5074398;28;20090;-64
2021/06/11 05:43:34;;;;;;;0.90;0.70;;;16.10;75.80;;;;;;5074328;28;20038;-63
2021/06/11 05:46:02;;;;;;;3.42;0.70;;;16.10;75.10;;;;;;5074376;28;20436;-64
2021/06/11 05:48:29;;;;;;;1.02;0.40;;;16.10;75.00;;;;;;5073829;28;20127;-62
2021/06/11 05:50:57;;;;;;;1.15;0.70;;;16.10;75.90;;;;;;5073857;28;20032;-63
2021/06/11 05:53:25;;;;;;;0.95;0.63;;;16.10;75.40;;;;;;5074439;28;20474;-63
2021/06/11 05:55:53;;;;;;;0.93;0.60;;;16.10;76.20;;;;;;5073740;28;20032;-65
2021/06/11 05:58:20;;;;;;;1.17;0.52;;;16.10;74.80;;;;;;5074342;28;20177;-57
2021/06/11 06:00:47;;;;;;;2.10;0.73;;;16.10;75.50;;;;;;5073675;28;20098;-61
2021/06/11 06:03:16;;;;;;;2.65;0.60;;;16.00;75.30;;;;;;5073899;28;20459;-60
2021/06/11 06:05:45;;;;;;;0.70;0.55;;;16.10;74.80;;;;;;5073780;28;20043;-62
2021/06/11 06:08:12;;;;;;;2.85;0.90;;;16.10;76.10;;;;;;5074040;28;20024;-66
2021/06/11 06:10:39;;;;;;;7.93;1.50;;;16.00;75.80;;;;;;5073578;28;20109;-64
2021/06/11 06:13:07;;;;;;;2.55;0.60;;;16.00;75.30;;;;;;5074142;28;20055;-58
2021/06/11 06:15:34;;;;;;;1.73;0.88;;;16.00;75.50;;;;;;5074061;28;20556;-63
2021/06/11 06:18:02;;;;;;;0.80;0.50;;;16.00;75.20;;;;;;5073408;28;20064;-60
2021/06/11 06:20:30;;;;;;;0.90;0.43;;;16.00;75.80;;;;;;5073735;28;20024;-65
2021/06/11 06:22:57;;;;;;;1.33;0.82;;;16.00;75.40;;;;;;5073684;28;20033;-58
2021/06/11 06:25:24;;;;;;;4.45;0.85;;;16.00;74.10;;;;;;5074160;28;20103;-57
2021/06/11 06:27:52;;;;;;;1.98;0.57;;;16.00;74.90;;;;;;5072453;28;20491;-65
2021/06/11 06:30:25;;;;;;;0.85;0.73;;;15.90;75.40;;;;;;5073582;28;20029;-66
2021/06/11 06:32:52;;;;;;;0.63;0.43;;;15.90;76.10;;;;;;5073748;28;20024;-58
2021/06/11 06:35:19;;;;;;;0.68;0.60;;;15.90;76.20;;;;;;5073095;28;20021;-61
2021/06/11 06:37:47;;;;;;;0.90;0.50;;;15.90;76.40;;;;;;5073292;28;20036;-54
2021/06/11 06:40:15;;;;;;;2.05;0.88;;;15.80;76.70;;;;;;5073398;28;20059;-64
2021/06/11 06:42:42;;;;;;;1.75;0.85;;;15.80;76.10;;;;;;5073178;28;20414;-62
2021/06/11 06:45:13;;;;;;;1.05;0.70;;;15.80;76.90;;;;;;5073195;28;20024;-60
2021/06/11 06:47:45;;;;;;;0.98;0.70;;;15.80;76.90;;;;;;5072291;28;20020;-61
2021/06/11 06:50:18;;;;;;;5.70;1.00;;;15.80;77.00;;;;;;5073418;28;20065;-56
2021/06/11 06:52:46;;;;;;;1.48;0.65;;;15.80;76.80;;;;;;5072755;28;20505;-62
2021/06/11 06:55:14;;;;;;;2.22;0.40;;;15.80;77.10;;;;;;5072945;28;20066;-62
2021/06/11 06:57:41;;;;;;;1.23;0.70;;;15.80;77.20;;;;;;5072731;28;20036;-62
2021/06/11 07:00:10;;;;;;;0.93;0.70;;;15.70;76.70;;;;;;5071559;28;20382;-63
2021/06/11 07:02:37;;;;;;;1.75;0.93;;;15.80;77.10;;;;;;5072505;28;20028;-63
2021/06/11 07:05:06;;;;;;;0.95;0.60;;;15.70;77.00;;;;;;5072761;28;20477;-66
2021/06/11 07:07:33;;;;;;;1.95;0.70;;;15.70;77.50;;;;;;5072418;28;20432;-65
2021/06/11 07:10:00;;;;;;;1.60;0.73;;;15.70;77.60;;;;;;5072929;28;20028;-61
2021/06/11 07:12:28;;;;;;;2.83;0.95;;;15.70;77.30;;;;;;5072219;28;20127;-60
2021/06/11 07:14:58;;;;;;;1.60;1.00;;;15.70;77.20;;;;;;5072998;28;20038;-58
2021/06/11 07:17:27;;;;;;;5.10;1.05;;;15.70;77.60;;;;;;5072508;28;20410;-54
2021/06/11 07:19:54;;;;;;;3.17;0.70;;;15.70;76.70;;;;;;5072577;28;20045;-62
2021/06/11 07:22:22;;;;;;;3.10;1.52;;;15.70;77.20;;;;;;5072657;28;20036;-65
2021/06/11 07:24:49;;;;;;;2.30;1.15;;;15.70;76.80;;;;;;5070901;28;20025;-64
2021/06/11 07:27:17;;;;;;;2.55;1.30;;;15.60;76.80;;;;;;5072427;28;20024;-58
2021/06/11 07:29:44;;;;;;;2.90;1.00;;;15.70;76.90;;;;;;5072890;28;20029;-65
2021/06/11 07:32:13;;;;;;;1.95;0.93;;;15.60;77.30;;;;;;5072521;28;20027;-61
2021/06/11 07:34:42;;;;;;;1.67;0.82;;;15.60;77.70;;;;;;5072076;28;20028;-60
2021/06/11 07:37:09;;;;;;;1.85;1.20;;;15.60;78.00;;;;;;5072209;28;20175;-66
2021/06/11 07:39:37;;;;;;;3.67;1.33;;;15.60;77.30;;;;;;5071722;28;20085;-55
2021/06/11 07:42:05;;;;;;;3.40;1.20;;;15.60;77.60;;;;;;5072428;28;20029;-60
2021/06/11 07:44:34;;;;;;;0.93;0.50;;;15.60;77.10;;;;;;5072328;28;20122;-61
2021/06/11 07:47:01;;;;;;;1.52;0.82;;;15.60;78.10;;;;;;5071086;28;20100;-66
2021/06/11 07:49:29;;;;;;;0.65;0.50;;;15.60;77.80;;;;;;5072258;28;20463;-60
2021/06/11 07:51:56;;;;;;;1.77;0.80;;;15.50;78.30;;;;;;5070557;28;20104;-62
2021/06/11 07:54:24;;;;;;;2.97;0.77;;;15.50;78.30;;;;;;5070434;28;20096;-66
2021/06/11 07:56:51;;;;;;;2.15;0.95;;;15.50;78.00;;;;;;5072261;28;20036;-62
2021/06/11 07:59:21;;;;;;;1.40;0.73;;;15.50;78.20;;;;;;5072508;28;20024;-64
2021/06/11 08:01:48;;;;;;;3.92;1.23;;;15.50;78.20;;;;;;5072096;28;20116;-64
2021/06/11 08:04:18;;;;;;;2.00;0.88;;;15.50;77.80;;;;;;5072227;28;20090;-62
2021/06/11 08:06:47;;;;;;;2.53;1.02;;;15.50;77.80;;;;;;5071917;28;20471;-62
2021/06/11 08:09:15;;;;;;;3.13;1.55;;;15.50;77.90;;;;;;5071841;28;20024;-62
2021/06/11 08:11:43;;;;;;;2.03;1.20;;;15.50;77.50;;;;;;5070799;28;20111;-59
2021/06/11 08:14:10;;;;;;;5.68;0.80;;;15.50;77.90;;;;;;5072030;28;20460;-57
2021/06/11 08:16:37;;;;;;;2.22;1.23;;;15.50;77.80;;;;;;5071992;28;20033;-66
2021/06/11 08:19:06;;;;;;;1.45;1.05;;;15.50;77.80;;;;;;5071513;28;20445;-56
2021/06/11 08:21:33;;;;;;;1.88;1.15;;;15.50;77.70;;;;;;5071951;28;20031;-61
2021/06/11 08:24:01;;;;;;;2.55;1.10;;;15.50;78.60;;;;;;5071590;28;20104;-58
2021/06/11 08:26:28;;;;;;;1.92;1.20;;;15.50;78.20;;;;;;5071370;28;20025;-59
2021/06/11 08:28:55;;;;;;;1.30;0.85;;;15.50;77.90;;;;;;5072082;28;20119;-64
2021/06/11 08:31:23;;;;;;;3.33;1.15;;;15.50;78.40;;;;;;5072171;28;20027;-64
2021/06/11 08:33:50;;;;;;;1.27;0.70;;;15.50;78.10;;;;;;5071775;28;20055;-61
2021/06/11 08:36:18;;;;;;;1.27;0.90;;;15.50;78.40;;;;;;5066752;28;20075;-61
2021/06/11 08:38:45;;;;;;;3.72;1.17;;;15.40;78.30;;;;;;5070479;28;20048;-62
2021/06/11 08:41:17;;;;;;;1.75;1.00;;;15.40;78.40;;;;;;5071881;28;20017;-64
2021/06/11 08:43:44;;;;;;;1.90;1.20;;;15.40;78.30;;;;;;5071903;28;20028;-62
2021/06/11 08:46:14;;;;;;;0.82;0.75;;;15.40;78.30;;;;;;5071766;28;20154;-62
2021/06/11 08:48:43;;;;;;;5.07;1.48;;;15.40;78.30;;;;;;5071342;28;20028;-64
2021/06/11 08:51:11;;;;;;;1.27;1.17;;;15.40;78.30;;;;;;5071485;28;20352;-60
2021/06/11 08:53:38;;;;;;;4.25;1.23;;;15.40;78.40;;;;;;5071681;28;20035;-60
2021/06/11 08:56:06;;;;;;;1.42;1.13;;;15.40;78.60;;;;;;5071915;28;20374;-59
2021/06/11 08:58:39;;;;;;;1.65;1.38;;;15.40;78.60;;;;;;5072541;28;20036;-63
2021/06/11 09:01:07;;;;;;;1.33;1.00;;;15.30;78.50;;;;;;5074772;28;20028;-56
2021/06/11 09:03:56;;;;;;;1.17;0.98;;;15.30;78.80;;;;;;5073992;28;20082;-62
2021/06/11 09:06:24;;;;;;;3.70;1.23;;;15.30;79.40;;;;;;5075272;28;20036;-60
2021/06/11 09:08:55;;;;;;;1.58;0.80;;;15.30;78.90;;;;;;5075189;28;20046;-60
2021/06/11 09:11:28;;;;;;;1.67;0.95;;;15.30;78.90;;;;;;5073599;28;20025;-61
2021/06/11 09:14:12;;;;;;;2.90;1.20;;;15.30;79.00;;;;;;5075452;28;20036;-55
2021/06/11 09:16:52;;;;;;;1.25;1.00;;;15.30;78.90;;;;;;5073497;28;20032;-58
2021/06/11 09:19:20;;;;;;;1.80;1.05;;;15.20;79.00;;;;;;5075119;28;20177;-57
2021/06/11 09:22:01;;;;;;;2.47;1.30;;;15.20;79.10;;;;;;5075441;28;20369;-64
2021/06/11 09:24:32;;;;;;;1.83;1.23;;;15.20;78.90;;;;;;5075059;28;20471;-59
2021/06/11 09:27:05;;;;;;;1.37;1.03;;;15.20;79.00;;;;;;5075376;28;20032;-60
2021/06/11 09:29:41;;;;;;;3.25;1.52;;;15.20;79.10;;;;;;5075248;28;20589;-53
2021/06/11 09:32:43;;;;;;;1.40;0.85;;;15.20;79.00;;;;;;5075131;28;20028;-64
2021/06/11 09:35:11;;;;;;;2.25;1.48;;;15.20;79.20;;;;;;5072259;28;20048;-67
2021/06/11 09:37:38;;;;;;;2.40;1.77;;;15.20;79.30;;;;;;5074964;28;20107;-57
2021/06/11 09:40:16;;;;;;;2.03;1.30;;;15.20;79.20;;;;;;5074788;28;20028;-65
2021/06/11 09:42:47;;;;;;;1.95;1.27;;;15.20;79.40;;;;;;5074408;28;20037;-60
2021/06/11 09:45:16;;;;;;;1.67;1.25;;;15.10;79.30;;;;;;5074935;28;20052;-63
2021/06/11 09:47:45;;;;;;;3.50;1.40;;;15.10;79.40;;;;;;5074605;28;20131;-59
2021/06/11 09:50:22;;;;;;;2.38;1.73;;;15.10;79.50;;;;;;5074334;28;20031;-58
2021/06/11 09:53:10;;;;;;;1.45;1.20;;;15.10;79.50;;;;;;5074229;28;20021;-53
2021/06/11 09:55:47;;;;;;;1.42;1.13;;;15.10;79.40;;;;;;5074685;28;20036;-56
2021/06/11 09:58:26;;;;;;;3.13;1.98;;;15.00;79.50;;;;;;5074147;28;20142;-51
2021/06/11 10:01:02;;;;;;;1.83;1.10;;;15.00;79.40;;;;;;5074389;28;20094;-61
2021/06/11 10:03:35;;;;;;;2.65;1.85;;;15.00;79.60;;;;;;5074255;28;20024;-63
2021/06/11 10:06:07;;;;;;;2.95;1.50;;;15.00;79.30;;;;;;5073992;28;20027;-62
2021/06/11 10:08:35;;;;;;;;;;;15.00;79.70;;;;;;5073770;28;20375;-65
2021/06/11 10:11:10;;;;;;;2.08;1.63;;;15.00;79.70;;;;;;5072834;28;19951;-60
2021/06/11 10:13:40;;;;;;;1.98;1.55;;;15.00;79.70;;;;;;5073892;28;20490;-57
2021/06/11 10:16:21;;;;;;;1.77;1.50;;;15.00;79.70;;;;;;5073461;28;20435;-66
2021/06/11 10:18:49;;;;;;;1.92;1.63;;;15.00;79.70;;;;;;5073593;28;20116;-63
2021/06/11 10:21:18;;;;;;;3.05;1.90;;;15.00;79.70;;;;;;5073644;28;20033;-55
2021/06/11 10:23:45;;;;;;;2.53;1.45;;;15.00;79.80;;;;;;5072814;28;20066;-61
2021/06/11 10:26:13;;;;;;;2.65;1.60;;;15.00;79.70;;;;;;5073547;28;20033;-62
2021/06/11 10:28:49;;;;;;;6.00;1.73;;;15.00;79.80;;;;;;5073602;28;20020;-62
2021/06/11 10:31:21;;;;;;;2.13;1.58;;;15.00;79.80;;;;;;5073616;28;20028;-61
2021/06/11 10:33:59;;;;;;;3.63;2.00;;;15.00;79.70;;;;;;5073119;28;20123;-62
2021/06/11 10:36:27;;;;;;;2.45;1.70;;;14.90;79.50;;;;;;5072124;28;20093;-66
2021/06/11 10:38:56;;;;;;;4.35;1.67;;;14.90;79.70;;;;;;5072136;28;20035;-57
2021/06/11 10:41:26;;;;;;;3.35;1.90;;;14.90;79.90;;;;;;5073681;28;20080;-65
2021/06/11 10:43:54;;;;;;;2.22;1.65;;;14.90;79.80;;;;;;5073470;28;20064;-65
2021/06/11 10:46:29;;;;;;;2.28;1.63;;;14.90;79.80;;;;;;5073628;28;20025;-59
2021/06/11 10:49:05;;;;;;;4.97;1.50;;;14.90;80.00;;;;;;5073702;28;20105;-65
2021/06/11 10:51:51;;;;;;;2.72;2.00;;;14.90;80.00;;;;;;5073719;28;20028;-65
2021/06/11 10:54:18;;;;;;;4.82;1.63;;;14.90;80.00;;;;;;5073526;28;20095;-64
2021/06/11 10:56:58;;;;;;;2.75;1.77;;;14.80;80.10;;;;;;5073163;28;20047;-66
2021/06/11 10:59:48;;;;;;;1.77;1.45;;;14.80;80.10;;;;;;5073829;28;20032;-64
2021/06/11 11:02:17;;;;;;;2.22;1.90;;;14.80;80.20;;;;;;5073869;28;20029;-60
2021/06/11 11:04:50;;;;;;;4.30;1.85;;;14.70;80.30;;;;;;5073459;28;20063;-58
2021/06/11 11:07:30;;;;;;;2.78;1.92;;;14.70;80.40;;;;;;5073057;28;20025;-65
2021/06/11 11:10:04;;;;;;;2.03;1.48;;;14.70;80.40;;;;;;5073397;28;20498;-64
2021/06/11 11:13:00;;;;;;;7.45;1.80;;;14.70;80.50;;;;;;5072692;28;20025;-60
2021/06/11 11:15:33;;;;;;;2.13;1.80;;;14.70;80.50;;;;;;5055251;28;20020;-63
2021/06/11 11:18:01;;;;;;;2.38;1.73;;;14.70;80.50;;;;;;5072920;28;20039;-65
2021/06/11 11:20:30;;;;;;;3.35;2.15;;;14.70;80.50;;;;;;5073554;28;20032;-58
2021/06/11 11:23:03;;;;;;;2.65;1.90;;;14.70;80.60;;;;;;5055201;28;20056;-56
2021/06/11 11:25:35;;;;;;;1.67;1.50;;;14.70;80.70;;;;;;5073393;28;20028;-59
2021/06/11 11:28:03;;;;;;;2.30;1.60;;;14.60;80.60;;;;;;5073972;28;20020;-61
2021/06/11 11:30:31;;;;;;;3.25;1.88;;;14.60;80.70;;;;;;5073061;28;20036;-62
2021/06/11 11:33:00;;;;;;;1.60;1.50;;;14.60;80.80;;;;;;5073780;28;20032;-61
2021/06/11 11:35:31;;;;;;;2.63;2.17;;;14.60;80.80;;;;;;5073593;28;20420;-61
2021/06/11 11:38:02;;;;;;;2.63;1.70;;;14.50;80.80;;;;;;5069809;28;20041;-59
2021/06/11 11:40:30;;;;;;;2.42;2.00;;;14.50;80.80;;;;;;5072787;28;20162;-63
2021/06/11 11:43:01;;;;;;;2.47;1.80;;;14.50;80.90;;;;;;5072882;28;20032;-60
2021/06/11 11:45:29;;;;;;;3.08;1.38;;;14.50;80.90;;;;;;5072332;28;20480;-59
2021/06/11 11:47:59;;;;;;;2.08;1.80;;;14.50;81.00;;;;;;5072550;28;20118;-63
2021/06/11 11:50:30;;;;;;;2.67;1.98;;;14.50;81.00;;;;;;5072314;28;20021;-66
2021/06/11 11:52:57;;;;;;;2.60;1.73;;;14.40;81.00;;;;;;5072403;28;20040;-64
2021/06/11 11:55:26;;;;;;;2.92;1.73;;;14.40;81.00;;;;;;5072509;28;20017;-64
2021/06/11 11:57:54;;;;;;;3.72;2.30;;;14.40;81.10;;;;;;5072727;28;20037;-58
2021/06/11 12:00:22;;;;;;;3.65;2.03;;;14.40;81.20;;;;;;5073185;28;20024;-63
2021/06/11 12:02:50;;;;;;;2.63;1.90;;;14.40;81.20;;;;;;5072792;28;20028;-66
2021/06/11 12:05:17;;;;;;;2.47;1.52;;;14.40;81.20;;;;;;5072607;28;20029;-53
2021/06/11 12:07:45;;;;;;;4.22;1.70;;;14.40;81.30;;;;;;5072607;28;20024;-61
2021/06/11 12:10:12;;;;;;;2.25;1.60;;;14.30;81.20;;;;;;5072582;28;20100;-63
2021/06/11 12:12:41;;;;;;;2.30;1.77;;;14.30;81.20;;;;;;5072563;28;20090;-65
2021/06/11 12:15:09;;;;;;;2.33;1.85;;;14.30;81.30;;;;;;5072628;28;20095;-65
2021/06/11 12:17:36;;;;;;;3.60;1.92;;;14.30;81.30;;;;;;5072303;28;20498;-62
2021/06/11 12:20:05;;;;;;;2.25;1.70;;;14.30;81.40;;;;;;5072102;28;20049;-62
2021/06/11 12:22:33;;;;;;;2.88;1.92;;;14.30;81.40;;;;;;5072149;28;20028;-61
2021/06/11 12:25:00;;;;;;;2.30;1.80;;;14.30;81.30;;;;;;5071936;28;20080;-59
2021/06/11 12:27:27;;;;;;;1.98;1.42;;;14.30;81.40;;;;;;5053722;28;20021;-63
2021/06/11 12:29:55;;;;;;;2.65;1.88;;;14.30;81.40;;;;;;5054501;28;20214;-55
2021/06/11 12:32:22;;;;;;;2.80;2.10;;;14.20;81.40;;;;;;5072362;28;20025;-54
2021/06/11 12:34:49;;;;;;;1.95;1.77;;;14.30;81.40;;;;;;5075478;28;20032;-61
2021/06/11 12:37:17;;;;;;;2.63;1.75;;;14.20;81.30;;;;;;5076248;28;20387;-62
2021/06/11 12:39:44;;;;;;;5.40;2.13;;;14.20;81.40;;;;;;5076199;28;20054;-55
2021/06/11 12:42:16;;;;;;;2.38;1.75;;;14.20;81.40;;;;;;5075973;28;20033;-54
2021/06/11 12:44:44;;;;;;;3.97;1.70;;;14.20;81.40;;;;;;5076247;28;20099;-63
2021/06/11 12:47:12;;;;;;;2.20;1.83;;;14.20;81.30;;;;;;5075960;28;20031;-49
2021/06/11 12:49:41;;;;;;;2.45;1.70;;;14.20;81.50;;;;;;5075674;28;20031;-59
2021/06/11 12:52:10;;;;;;;1.73;1.58;;;14.20;81.40;;;;;;5076262;28;20360;-53
2021/06/11 12:54:37;;;;;;;2.45;1.90;;;14.10;81.40;;;;;;5076109;28;20031;-61
2021/06/11 12:57:05;;;;;;;4.45;2.17;;;14.10;81.40;;;;;;5075779;28;20035;-61
2021/06/11 12:59:34;;;;;;;4.38;2.13;;;14.10;81.40;;;;;;5075622;28;20324;-59
2021/06/11 13:02:02;;;;;;;3.88;2.10;;;14.10;81.40;;;;;;5075477;28;20029;-63